• Join FlightAware (Why Join?)
  • Login
  • US Flag 
02:05AM EST


 

Airport Tracker/Info


-or-


 

Live Flight TrackerFlight Track Log ✈ CHQ6134 ✈ 21-Aug-2013 ✈ KJFK - KIAD

Flight Track Log - Related Links

Times and Time Zones

All times are in EDT time to prevent confusion due to time zone crossing. See the CHQ6134 flight status page for this flight to view local times or setup timezone preferences in your user account.

Time Position Orientation Groundspeed Altitude Reporting Facility
EDT Latitude Longitude Course Direction KTS MPH feet Rate Location/Type
03:48PM 40.6167 -73.7667 217° Southwest 165 190 1,300  Level New York TRACON
03:49PM 40.5667 -73.7667 180° South 197 227 3,400 1,800 Climbing New York TRACON
03:50PM 40.5500 -73.8333 252° West 247 284 5,100 1,920 Climbing New York TRACON
03:51PM 40.3894 -74.1660 229° Southwest  Level FlightAware Approximate
03:51PM 40.5167 -73.9333 246° West 266 306 7,500  Level New York TRACON
03:52PM 40.3270 -74.2662 232° Southwest  Level FlightAware Approximate
03:53PM 40.2658 -74.3675 217° Southwest  Level FlightAware Approximate
03:53PM 40.4000 -74.1042 228° Southwest 280 322 11,000  Level New York Center
03:54PM 40.3533 -74.2000 237° Southwest 332 382 11,800 1,380 Climbing New York Center
03:55PM 40.2958 -74.3142 237° Southwest 351 404 13,800 1,740 Climbing New York Center
03:56PM 40.2492 -74.4069 237° Southwest 351 404 15,300 1,440 Climbing New York Center
03:57PM 40.2058 -74.5294 245° Southwest 346 398 16,700 1,200 Climbing New York Center
03:58PM 40.1997 -74.6569 266° West 339 390 17,800 1,200 Climbing New York Center
03:59PM 40.1953 -74.7844 267° West 339 390 19,200 1,080 Climbing New York Center
04:00PM 40.1914 -74.9011 268° West 358 412 20,000 360 Climbing New York Center
04:01PM 40.1864 -75.0392 267° West 371 427 20,000  Level New York Center
04:02PM 40.1808 -75.1883 267° West 389 448 20,000  Level New York Center
04:03PM 40.1733 -75.3319 266° West 402 463 20,000  Level New York Center
04:04PM 40.1658 -75.4728 266° West 402 463 20,000  Level New York Center
04:05PM 40.1581 -75.6081 266° West 391 450 20,000  Level New York Center
04:06PM 40.1528 -75.7381 267° West 378 435 20,000  Level New York Center
04:07PM 40.1428 -75.8758 265° West 378 435 20,000 -300 Level New York Center
04:08PM 40.1367 -76.0111 267° West 378 435 19,400 -1,140 Descending New York Center
04:09PM 40.1278 -76.1653 266° West 388 447 17,800 -1,200 Descending New York Center
04:10PM 40.1153 -76.2972 263° West 382 440 17,000 -420 Descending New York Center
04:11PM 40.0686 -76.4047 240° Southwest 354 407 17,000 -540 Level New York Center
04:13PM 39.9833 -76.5833 238° Southwest 359 413 15,700 -780 Descending Potomac TRACON
04:14PM 39.9333 -76.7000 241° Southwest 364 419 15,000 -420 Descending Potomac TRACON
04:15PM 39.9000 -76.7833 242° Southwest 350 403 15,000  Level Potomac TRACON
04:16PM 39.8500 -76.8833 237° Southwest 334 384 15,000 -480 Level Potomac TRACON
04:17PM 39.8000 -76.9833 237° Southwest 334 384 14,100 -1,200 Descending Potomac TRACON
04:18PM 39.7500 -77.1000 241° Southwest 344 396 12,600 -1,440 Descending Potomac TRACON
04:19PM 39.7000 -77.2000 237° Southwest 345 397 11,200 -1,320 Descending Potomac TRACON
04:20PM 39.6333 -77.2833 224° Southwest 335 386 10,000 -840 Descending Potomac TRACON
04:21PM 39.5333 -77.3167 194° South 286 329 9,600 -1,080 Descending Potomac TRACON
04:22PM 39.4667 -77.3500 201° Southwest 271 312 7,900 -1,260 Descending Potomac TRACON
04:23PM 39.3833 -77.3833 197° South 259 298 7,000 -1,020 Descending Potomac TRACON
04:24PM 39.3333 -77.4167 207° Southwest 257 296 5,900 -1,500 Descending Potomac TRACON
04:25PM 39.2500 -77.4500 197° South 251 289 4,000 -1,440 Descending Potomac TRACON
04:26PM 39.1833 -77.4500 180° South 229 264 3,000 -540 Descending Potomac TRACON
04:27PM 39.1333 -77.4500 180° South 191 220 3,000 -240 Level Potomac TRACON
04:28PM 39.0833 -77.4500 180° South 171 197 2,600 -600 Descending Potomac TRACON
04:29PM 39.0500 -77.4500 180° South 150 173 1,800 -780 Descending Potomac TRACON
04:30PM 39.0000 -77.4667 195° South 142 163 1,100 -720 Descending Potomac TRACON